Time;durP1;ratioP1;P1;durP2;ratioP2;P2;SDS_P1;SDS_P2;PMS_P1;PMS_P2;Temp;Humidity;BMP_temperature;BMP_pressure;BME280_temperature;BME280_humidity;BME280_pressure;Samples;Min_cycle;Max_cycle;Signal;HPM_P1;HPM_P2
2022/11/09 00:01:23;;;;;;;6.18;1.23;;;11.40;99.90;;;;;;4932380;29;20487;-75
2022/11/09 00:03:57;;;;;;;6.38;2.03;;;11.40;99.90;;;;;;4950703;29;20088;-74
2022/11/09 00:06:23;;;;;;;2.90;1.38;;;11.50;99.90;;;;;;4943672;28;20047;-73
2022/11/09 00:08:49;;;;;;;5.70;1.40;;;11.40;99.90;;;;;;4948823;29;20071;-74
2022/11/09 00:11:15;;;;;;;5.57;1.40;;;11.60;99.90;;;;;;4946565;28;20081;-73
2022/11/09 00:13:42;;;;;;;6.72;1.45;;;11.40;99.90;;;;;;4946588;28;20429;-74
2022/11/09 00:16:10;;;;;;;3.95;1.17;;;11.50;99.90;;;;;;4947840;29;20039;-75
2022/11/09 00:18:36;;;;;;;5.32;1.10;;;11.60;99.90;;;;;;4949395;29;20047;-73
2022/11/09 00:21:11;;;;;;;4.60;1.83;;;11.60;99.90;;;;;;4946195;28;20051;-73
2022/11/09 00:23:36;;;;;;;4.80;1.42;;;11.60;99.90;;;;;;4947736;28;20039;-72
2022/11/09 00:26:04;;;;;;;7.63;1.65;;;11.50;99.90;;;;;;4948560;28;20094;-73
2022/11/09 00:28:30;;;;;;;3.33;1.30;;;11.70;99.90;;;;;;4932263;28;20508;-73
2022/11/09 00:31:04;;;;;;;7.03;1.90;;;11.60;99.90;;;;;;4930989;29;20138;-72
2022/11/09 00:33:30;;;;;;;5.60;1.63;;;11.70;99.90;;;;;;4932217;29;20154;-73
2022/11/09 00:35:56;;;;;;;2.50;1.33;;;11.60;99.90;;;;;;4931753;29;20126;-74
2022/11/09 00:38:22;;;;;;;3.83;1.27;;;11.60;99.90;;;;;;4947016;28;20502;-73
2022/11/09 00:40:48;;;;;;;5.00;2.15;;;11.50;99.90;;;;;;4964243;28;20051;-73
2022/11/09 00:43:14;;;;;;;8.20;1.83;;;11.40;99.90;;;;;;4930418;28;20081;-73
2022/11/09 00:45:40;;;;;;;6.53;2.35;;;11.40;99.90;;;;;;4929730;28;20086;-73
2022/11/09 00:48:06;;;;;;;5.90;2.10;;;11.50;99.90;;;;;;4948703;29;20371;-73
2022/11/09 00:50:32;;;;;;;6.15;2.00;;;11.60;99.90;;;;;;4949938;28;20039;-74
2022/11/09 00:52:58;;;;;;;5.60;2.35;;;11.60;99.90;;;;;;4947533;29;20058;-73
2022/11/09 00:55:24;;;;;;;8.52;3.30;;;11.60;99.90;;;;;;4947817;28;20039;-74
2022/11/09 00:57:51;;;;;;;8.05;2.70;;;11.80;99.90;;;;;;4947394;28;20050;-74
2022/11/09 01:00:20;;;;;;;5.93;2.80;;;11.60;99.90;;;;;;4932713;29;20066;-73
2022/11/09 01:02:48;;;;;;;19.20;3.45;;;11.70;99.90;;;;;;4963673;28;20040;-74
2022/11/09 01:05:13;;;;;;;11.20;3.33;;;11.70;99.90;;;;;;4932058;28;20067;-73
2022/11/09 01:07:39;;;;;;;11.55;3.17;;;11.80;99.90;;;;;;4947564;28;20062;-74
2022/11/09 01:10:06;;;;;;;5.82;2.22;;;12.00;99.90;;;;;;4948458;28;20078;-72
2022/11/09 01:12:31;;;;;;;10.82;3.90;;;12.00;99.90;;;;;;4947546;28;20042;-73
2022/11/09 01:14:57;;;;;;;10.05;2.53;;;12.00;99.90;;;;;;4947745;28;20055;-74
2022/11/09 01:17:23;;;;;;;9.98;2.70;;;12.20;99.90;;;;;;4949122;28;20528;-73
2022/11/09 01:19:49;;;;;;;4.70;2.53;;;12.00;99.90;;;;;;4949647;28;20106;-74
2022/11/09 01:22:15;;;;;;;6.10;2.22;;;12.10;99.90;;;;;;4949689;28;20472;-74
2022/11/09 01:24:41;;;;;;;9.65;2.33;;;12.00;99.90;;;;;;4932511;29;20035;-73
2022/11/09 01:27:07;;;;;;;5.25;2.38;;;12.10;99.90;;;;;;4960372;28;20054;-75
2022/11/09 01:29:33;;;;;;;8.02;3.90;;;12.10;99.90;;;;;;4933099;29;20042;-73
2022/11/09 01:31:58;;;;;;;5.60;2.55;;;12.10;99.90;;;;;;4948045;28;20438;-74
2022/11/09 01:34:27;;;;;;;7.72;2.25;;;12.10;99.90;;;;;;4948140;28;20528;-73
2022/11/09 01:36:52;;;;;;;5.15;2.17;;;12.20;99.90;;;;;;4962664;28;20071;-75
2022/11/09 01:39:19;;;;;;;9.27;2.85;;;12.00;99.90;;;;;;4928880;29;20039;-73
2022/11/09 01:41:45;;;;;;;9.85;4.03;;;11.90;99.90;;;;;;4948072;28;20063;-73
2022/11/09 01:44:19;;;;;;;10.15;2.78;;;11.90;99.90;;;;;;4960391;28;20035;-73
2022/11/09 01:46:50;;;;;;;5.53;1.95;;;11.90;99.90;;;;;;4962925;28;20094;-73
2022/11/09 01:49:53;;;;;;;7.28;3.00;;;11.80;99.90;;;;;;4930941;29;20039;-73
2022/11/09 01:52:30;;;;;;;9.15;3.25;;;12.00;99.90;;;;;;4889808;29;20052;-74
2022/11/09 01:55:06;;;;;;;8.30;2.25;;;11.90;99.90;;;;;;4926016;29;21998;-73
2022/11/09 01:57:37;;;;;;;10.50;3.28;;;12.00;99.90;;;;;;4947730;28;20039;-73
2022/11/09 02:00:09;;;;;;;8.23;3.80;;;11.80;99.90;;;;;;4950111;28;20050;-74
2022/11/09 02:02:37;;;;;;;4.57;2.80;;;11.80;99.90;;;;;;4931193;29;20384;-75
2022/11/09 02:05:07;;;;;;;11.73;2.95;;;12.00;99.90;;;;;;4927055;29;20134;-73
2022/11/09 02:07:34;;;;;;;26.83;4.45;;;11.90;99.90;;;;;;4923214;29;20691;-73
2022/11/09 02:10:05;;;;;;;9.00;2.45;;;11.90;99.90;;;;;;5044369;23;20062;-74
2022/11/09 02:12:33;;;;;;;9.48;3.00;;;11.90;99.90;;;;;;4981869;28;20046;-73
2022/11/09 02:15:02;;;;;;;9.18;3.15;;;11.80;99.90;;;;;;4977130;28;20046;-73
2022/11/09 02:17:29;;;;;;;13.65;3.70;;;11.70;99.90;;;;;;4972095;28;20051;-74
2022/11/09 02:19:58;;;;;;;17.05;4.13;;;11.80;99.90;;;;;;4969994;28;20058;-73
2022/11/09 02:22:24;;;;;;;10.75;2.67;;;11.70;99.90;;;;;;4976887;28;20078;-74
2022/11/09 02:24:49;;;;;;;10.07;2.78;;;11.90;99.90;;;;;;4982473;28;20046;-73
2022/11/09 02:27:16;;;;;;;8.05;2.35;;;11.80;99.90;;;;;;4987836;28;20038;-73
2022/11/09 02:29:45;;;;;;;12.27;2.38;;;11.90;99.90;;;;;;4980380;28;20050;-73
2022/11/09 02:32:19;;;;;;;6.00;2.40;;;11.70;99.90;;;;;;4971931;28;20477;-75
2022/11/09 02:34:45;;;;;;;17.65;3.13;;;11.70;99.90;;;;;;4970030;28;20093;-73
2022/11/09 02:37:11;;;;;;;15.38;4.43;;;11.60;99.90;;;;;;4964564;28;20150;-73
2022/11/09 02:39:37;;;;;;;14.82;3.70;;;11.70;99.90;;;;;;4988191;28;20185;-74
2022/11/09 02:42:09;;;;;;;10.18;2.83;;;11.60;99.90;;;;;;4982426;28;20113;-73
2022/11/09 02:44:39;;;;;;;8.80;2.45;;;11.50;99.90;;;;;;4975845;28;20053;-73
2022/11/09 02:47:05;;;;;;;9.13;2.67;;;11.70;99.90;;;;;;4976551;28;20534;-73
2022/11/09 02:49:30;;;;;;;11.13;2.72;;;11.70;99.90;;;;;;4988344;28;20051;-74
2022/11/09 02:51:56;;;;;;;10.18;2.35;;;11.80;99.90;;;;;;4950887;28;20078;-73
2022/11/09 02:54:22;;;;;;;9.27;2.08;;;11.70;99.90;;;;;;4985946;28;20078;-74
2022/11/09 02:56:48;;;;;;;10.48;3.28;;;11.80;99.90;;;;;;4984319;28;20409;-73
2022/11/09 02:59:13;;;;;;;8.70;2.58;;;11.70;99.90;;;;;;4985198;28;20489;-74
2022/11/09 03:01:39;;;;;;;8.02;2.10;;;11.70;99.90;;;;;;4980717;28;20046;-73
2022/11/09 03:04:05;;;;;;;6.20;2.55;;;11.60;99.90;;;;;;4975700;28;20038;-74
2022/11/09 03:06:33;;;;;;;10.25;3.28;;;11.50;99.90;;;;;;4990097;28;20038;-74
2022/11/09 03:09:10;;;;;;;7.57;2.95;;;11.70;99.90;;;;;;4980854;28;20149;-74
2022/11/09 03:11:36;;;;;;;10.77;2.30;;;11.60;99.90;;;;;;4984988;28;20097;-73
2022/11/09 03:14:03;;;;;;;11.30;3.42;;;11.50;99.90;;;;;;4982604;28;20042;-74
2022/11/09 03:16:29;;;;;;;6.88;1.65;;;11.60;99.90;;;;;;4982121;28;20082;-73
2022/11/09 03:18:55;;;;;;;9.93;2.45;;;11.50;99.90;;;;;;4981168;28;20058;-73
2022/11/09 03:21:21;;;;;;;17.23;4.13;;;11.50;99.90;;;;;;4972183;28;20053;-75
2022/11/09 03:23:48;;;;;;;8.90;2.38;;;11.60;99.90;;;;;;4974252;28;20043;-74
2022/11/09 03:26:14;;;;;;;11.35;3.65;;;11.50;99.90;;;;;;4987544;28;20070;-73
2022/11/09 03:28:40;;;;;;;14.27;3.33;;;11.60;99.90;;;;;;4984594;28;20683;-74
2022/11/09 03:31:06;;;;;;;11.13;2.60;;;11.60;99.90;;;;;;4988132;28;20081;-73
2022/11/09 03:33:32;;;;;;;14.15;2.38;;;11.60;99.90;;;;;;4984603;28;20072;-74
2022/11/09 03:35:58;;;;;;;16.63;3.58;;;11.60;99.90;;;;;;4990026;28;20491;-73
2022/11/09 03:38:23;;;;;;;10.13;3.50;;;11.60;99.90;;;;;;4980594;28;20112;-73
2022/11/09 03:40:49;;;;;;;14.27;2.28;;;11.50;99.90;;;;;;4990238;28;20057;-73
2022/11/09 03:43:14;;;;;;;11.32;2.72;;;11.50;99.90;;;;;;4989133;28;20375;-73
2022/11/09 03:45:40;;;;;;;20.85;4.65;;;11.40;99.90;;;;;;4989288;28;20605;-72
2022/11/09 03:48:06;;;;;;;9.65;2.30;;;11.40;99.90;;;;;;4982895;28;20482;-73
2022/11/09 03:50:33;;;;;;;6.97;1.75;;;11.30;99.90;;;;;;4970522;28;20126;-74
2022/11/09 03:53:00;;;;;;;6.50;1.60;;;11.40;99.90;;;;;;4959131;28;20058;-75
2022/11/09 03:55:27;;;;;;;12.52;1.98;;;11.40;99.90;;;;;;4977919;28;20051;-74
2022/11/09 03:57:52;;;;;;;14.65;2.90;;;11.30;99.90;;;;;;4978572;28;20042;-74
2022/11/09 04:00:20;;;;;;;15.88;2.40;;;11.50;99.90;;;;;;4987913;28;20531;-74
2022/11/09 04:02:46;;;;;;;11.15;3.70;;;11.40;99.90;;;;;;4984821;28;20046;-76
2022/11/09 04:05:13;;;;;;;16.23;3.20;;;11.50;99.90;;;;;;4981215;28;20135;-74
2022/11/09 04:07:39;;;;;;;10.23;2.72;;;11.50;99.90;;;;;;4971898;28;20050;-73
2022/11/09 04:10:06;;;;;;;21.90;4.88;;;11.50;99.90;;;;;;4970698;28;20109;-73
2022/11/09 04:12:31;;;;;;;16.98;3.17;;;11.50;99.90;;;;;;4998311;28;20057;-74
2022/11/09 04:14:57;;;;;;;9.65;3.28;;;11.30;99.90;;;;;;4988384;28;20042;-73
2022/11/09 04:17:23;;;;;;;21.13;2.75;;;11.40;99.90;;;;;;4982001;28;20054;-74
2022/11/09 04:19:48;;;;;;;15.73;3.58;;;11.50;99.90;;;;;;4985614;28;20050;-74
2022/11/09 04:22:14;;;;;;;6.43;1.85;;;11.50;99.90;;;;;;4979126;28;20532;-74
2022/11/09 04:24:39;;;;;;;12.07;2.55;;;11.40;99.90;;;;;;4978359;28;20388;-75
2022/11/09 04:27:05;;;;;;;16.33;3.40;;;11.50;99.90;;;;;;4987117;28;20030;-74
2022/11/09 04:29:31;;;;;;;13.60;3.85;;;11.50;99.90;;;;;;4970071;28;20069;-73
2022/11/09 04:31:57;;;;;;;11.63;2.75;;;11.50;99.90;;;;;;4980301;28;20128;-73
2022/11/09 04:34:22;;;;;;;9.75;2.35;;;11.50;99.90;;;;;;4985910;28;20061;-73
2022/11/09 04:36:48;;;;;;;8.98;2.38;;;11.50;99.90;;;;;;4976464;28;20220;-74
2022/11/09 04:39:14;;;;;;;14.88;3.83;;;11.50;99.90;;;;;;4987351;28;20525;-74
2022/11/09 04:41:40;;;;;;;14.25;3.58;;;11.40;99.90;;;;;;4957820;28;20425;-73
2022/11/09 04:44:05;;;;;;;10.82;3.55;;;11.40;99.90;;;;;;4979611;28;20051;-74
2022/11/09 04:46:31;;;;;;;12.13;3.58;;;11.40;99.90;;;;;;5003857;28;20042;-74
2022/11/09 04:48:57;;;;;;;12.38;2.08;;;11.40;99.90;;;;;;4984895;28;20069;-73
2022/11/09 04:51:22;;;;;;;17.33;2.58;;;11.50;99.90;;;;;;4974445;28;20125;-73
2022/11/09 04:53:48;;;;;;;7.88;2.55;;;11.40;99.90;;;;;;4982719;28;20154;-74
2022/11/09 04:56:14;;;;;;;10.05;2.38;;;11.50;99.90;;;;;;4976138;28;20125;-74
2022/11/09 04:58:39;;;;;;;11.25;3.25;;;11.40;99.90;;;;;;4982856;28;20062;-74
2022/11/09 05:01:14;;;;;;;10.90;3.22;;;11.50;99.90;;;;;;4986955;28;20138;-75
2022/11/09 05:03:40;;;;;;;15.20;2.67;;;11.50;99.90;;;;;;4985742;28;20054;-74
2022/11/09 05:08:54;;;;;;;11.40;2.83;;;11.50;99.90;;;;;;4983605;28;20142;-73
2022/11/09 05:11:21;;;;;;;9.93;2.17;;;11.50;99.90;;;;;;4985843;28;20047;-74
2022/11/09 05:13:46;;;;;;;10.15;3.00;;;11.60;99.90;;;;;;4960895;28;20049;-74
2022/11/09 05:16:12;;;;;;;11.85;2.95;;;11.50;99.90;;;;;;4974739;28;20409;-74
2022/11/09 05:18:38;;;;;;;14.30;2.25;;;11.40;99.90;;;;;;4984385;28;20319;-74
2022/11/09 05:21:04;;;;;;;11.40;3.03;;;11.50;99.90;;;;;;4985268;28;20065;-73
2022/11/09 05:26:14;;;;;;;11.20;2.30;;;11.50;99.90;;;;;;4988147;28;20090;-73
2022/11/09 05:28:40;;;;;;;10.02;2.63;;;11.60;99.90;;;;;;4979418;28;20192;-74
2022/11/09 05:31:05;;;;;;;14.27;4.22;;;11.50;99.90;;;;;;4971663;28;20078;-72
2022/11/09 05:33:31;;;;;;;8.02;2.05;;;11.40;99.90;;;;;;4996276;28;20045;-75
2022/11/09 05:35:57;;;;;;;9.90;2.83;;;11.50;99.90;;;;;;4970217;28;20124;-75
2022/11/09 05:38:23;;;;;;;8.85;3.10;;;11.50;99.90;;;;;;4976466;28;20046;-74
2022/11/09 05:40:50;;;;;;;16.13;4.50;;;11.60;99.90;;;;;;4987394;28;20133;-75
2022/11/09 05:43:16;;;;;;;16.02;3.20;;;11.50;99.90;;;;;;4974394;28;20053;-73
2022/11/09 05:45:45;;;;;;;11.82;2.38;;;11.60;99.90;;;;;;4978157;28;20117;-73
2022/11/09 05:48:13;;;;;;;15.70;3.58;;;11.60;99.90;;;;;;4985637;28;20042;-74
2022/11/09 05:50:42;;;;;;;9.98;3.05;;;11.60;99.90;;;;;;4978307;28;20061;-75
2022/11/09 05:53:10;;;;;;;11.87;2.60;;;11.50;99.90;;;;;;4985227;28;20100;-74
2022/11/09 05:55:36;;;;;;;9.50;3.50;;;11.50;99.90;;;;;;4977295;28;20035;-75
2022/11/09 05:58:01;;;;;;;11.02;2.17;;;11.30;99.90;;;;;;4972299;28;20116;-74
2022/11/09 06:00:27;;;;;;;11.65;2.25;;;11.40;99.90;;;;;;4986759;28;20038;-73
2022/11/09 06:02:53;;;;;;;5.07;2.78;;;11.30;99.90;;;;;;4986338;28;20518;-74
2022/11/09 06:05:20;;;;;;;21.13;2.92;;;11.30;99.90;;;;;;4979149;28;20051;-74
2022/11/09 06:07:45;;;;;;;12.70;2.38;;;11.30;99.90;;;;;;4969002;28;20417;-72
2022/11/09 06:10:11;;;;;;;14.63;3.25;;;11.20;99.90;;;;;;4968869;28;20054;-74
2022/11/09 06:12:37;;;;;;;15.07;2.85;;;11.30;99.90;;;;;;4973221;28;20374;-73
2022/11/09 06:15:04;;;;;;;11.32;2.30;;;11.20;99.90;;;;;;4986351;28;20484;-72
2022/11/09 06:17:30;;;;;;;11.18;3.83;;;11.20;99.90;;;;;;4987902;28;20528;-73
2022/11/09 06:19:55;;;;;;;13.07;2.22;;;11.20;99.90;;;;;;4986087;28;20055;-73
2022/11/09 06:22:21;;;;;;;10.85;2.22;;;11.10;99.90;;;;;;4986171;28;20045;-73
2022/11/09 06:24:47;;;;;;;10.25;2.95;;;11.20;99.90;;;;;;4985743;28;20046;-74
2022/11/09 06:27:12;;;;;;;11.13;3.03;;;11.20;99.90;;;;;;4969965;28;20625;-73
2022/11/09 06:29:38;;;;;;;18.35;3.78;;;11.20;99.90;;;;;;4974624;28;20663;-75
2022/11/09 06:32:04;;;;;;;7.40;2.20;;;11.10;99.90;;;;;;4972433;28;20043;-73
2022/11/09 06:34:29;;;;;;;14.75;2.13;;;11.10;99.90;;;;;;4981333;28;20046;-75
2022/11/09 06:36:55;;;;;;;9.40;2.40;;;11.20;99.90;;;;;;4986961;28;20142;-74
2022/11/09 06:39:21;;;;;;;13.55;3.00;;;11.10;99.90;;;;;;4992968;28;20053;-74
2022/11/09 06:41:47;;;;;;;11.02;2.97;;;11.10;99.90;;;;;;4975809;28;20050;-74
2022/11/09 06:44:12;;;;;;;8.45;1.65;;;11.20;99.90;;;;;;4982483;28;20134;-74
2022/11/09 06:46:38;;;;;;;10.25;2.05;;;11.20;99.90;;;;;;4992018;28;20049;-75
2022/11/09 06:49:04;;;;;;;8.77;2.72;;;11.10;99.90;;;;;;4984236;28;20058;-74
2022/11/09 06:51:29;;;;;;;12.43;2.30;;;11.20;99.90;;;;;;4971987;28;20145;-73
2022/11/09 06:53:55;;;;;;;8.48;2.40;;;11.10;99.90;;;;;;4975865;28;20094;-75
2022/11/09 06:56:21;;;;;;;9.73;2.40;;;11.10;99.90;;;;;;4986047;28;20544;-74
2022/11/09 06:58:46;;;;;;;15.52;2.90;;;11.10;99.90;;;;;;4976879;28;20035;-74
2022/11/09 07:01:17;;;;;;;5.68;1.60;;;11.20;99.90;;;;;;4977191;28;20061;-74
2022/11/09 07:03:42;;;;;;;11.00;2.13;;;11.10;99.90;;;;;;4981725;28;20050;-73
2022/11/09 07:06:10;;;;;;;8.65;2.65;;;11.20;99.90;;;;;;4981226;28;20043;-74
2022/11/09 07:08:36;;;;;;;10.98;3.08;;;11.10;99.90;;;;;;4989403;28;20058;-73
2022/11/09 07:11:08;;;;;;;7.25;2.35;;;11.10;99.90;;;;;;4991268;28;20065;-74
2022/11/09 07:13:34;;;;;;;9.60;1.88;;;11.10;99.90;;;;;;4985972;28;20046;-74
2022/11/09 07:16:00;;;;;;;10.95;2.28;;;11.10;99.90;;;;;;4989459;28;20057;-73
2022/11/09 07:18:25;;;;;;;11.02;2.33;;;11.10;99.90;;;;;;4991370;28;20184;-73
2022/11/09 07:20:51;;;;;;;11.30;3.00;;;11.00;99.90;;;;;;4988885;28;20417;-73
2022/11/09 07:23:18;;;;;;;7.57;2.45;;;11.10;99.90;;;;;;4989568;28;20397;-73
2022/11/09 07:25:44;;;;;;;8.77;3.00;;;11.10;99.90;;;;;;4984712;28;20045;-74
2022/11/09 07:28:10;;;;;;;14.77;4.25;;;11.00;99.90;;;;;;4988956;28;20046;-74
2022/11/09 07:30:36;;;;;;;13.50;3.55;;;11.00;99.90;;;;;;4973298;28;20038;-76
2022/11/09 07:33:03;;;;;;;8.57;2.50;;;11.00;99.90;;;;;;4990512;28;20054;-74
2022/11/09 07:35:29;;;;;;;7.18;2.42;;;11.10;99.90;;;;;;4974828;28;20046;-73
2022/11/09 07:37:59;;;;;;;10.75;3.13;;;11.10;99.90;;;;;;4982996;28;20061;-73
2022/11/09 07:40:25;;;;;;;10.52;3.00;;;11.10;99.90;;;;;;4987917;28;20699;-74
2022/11/09 07:42:51;;;;;;;6.00;1.50;;;11.10;99.90;;;;;;4984433;28;20042;-74
2022/11/09 07:45:16;;;;;;;8.82;3.20;;;11.10;99.90;;;;;;4978047;28;20180;-74
2022/11/09 07:47:42;;;;;;;14.02;3.30;;;11.10;99.90;;;;;;4966993;28;20445;-73
2022/11/09 07:50:08;;;;;;;11.80;2.92;;;11.10;99.90;;;;;;4986461;28;20062;-72
2022/11/09 07:52:34;;;;;;;7.75;2.75;;;11.30;99.90;;;;;;4963625;28;20145;-73
2022/11/09 07:54:59;;;;;;;10.43;2.40;;;11.20;99.90;;;;;;4988408;28;20459;-73
2022/11/09 07:57:25;;;;;;;14.40;2.50;;;11.20;99.90;;;;;;4988505;28;20529;-75
2022/11/09 07:59:52;;;;;;;6.80;1.88;;;11.30;99.90;;;;;;4985118;28;20070;-74
2022/11/09 08:02:18;;;;;;;13.40;3.63;;;11.30;99.90;;;;;;4972912;28;20137;-74
2022/11/09 08:04:43;;;;;;;9.48;2.55;;;11.30;99.90;;;;;;4990982;28;20125;-73
2022/11/09 08:07:09;;;;;;;13.98;2.22;;;11.30;99.90;;;;;;4989231;28;20046;-73
2022/11/09 08:09:35;;;;;;;15.63;3.05;;;11.40;99.90;;;;;;4991308;28;20050;-74
2022/11/09 08:12:00;;;;;;;12.88;3.50;;;11.40;99.90;;;;;;4983635;28;20148;-74
2022/11/09 08:14:26;;;;;;;13.30;2.92;;;11.40;99.90;;;;;;4990195;28;20413;-74
2022/11/09 08:16:51;;;;;;;14.90;4.13;;;11.30;99.90;;;;;;4989687;28;20058;-74
2022/11/09 08:19:17;;;;;;;17.38;3.35;;;11.40;99.90;;;;;;4990725;28;20456;-73
2022/11/09 08:21:43;;;;;;;8.68;2.45;;;11.40;99.90;;;;;;4989223;28;20480;-73
2022/11/09 08:24:08;;;;;;;10.70;2.95;;;11.60;99.90;;;;;;4989375;28;20077;-75
2022/11/09 08:26:34;;;;;;;10.02;2.45;;;11.60;99.90;;;;;;4990478;28;20058;-75
2022/11/09 08:28:59;;;;;;;12.30;1.90;;;11.70;99.90;;;;;;4987918;28;20047;-73
2022/11/09 08:31:25;;;;;;;11.65;3.50;;;11.80;99.90;;;;;;4988505;28;20058;-74
2022/11/09 08:33:51;;;;;;;9.25;2.15;;;11.90;99.90;;;;;;4990193;28;20478;-74
2022/11/09 08:36:17;;;;;;;12.00;3.22;;;11.90;99.90;;;;;;4990373;28;20100;-74
2022/11/09 08:38:44;;;;;;;9.50;3.17;;;12.00;99.90;;;;;;4989445;28;20089;-74
2022/11/09 08:41:11;;;;;;;9.65;3.20;;;11.90;99.90;;;;;;4988120;28;20046;-73
2022/11/09 08:43:37;;;;;;;16.27;2.45;;;12.00;99.90;;;;;;4989277;28;20046;-73
2022/11/09 08:46:03;;;;;;;14.00;3.10;;;12.00;99.90;;;;;;4972041;28;20470;-73
2022/11/09 08:48:29;;;;;;;15.93;3.25;;;12.10;99.90;;;;;;4969706;28;20051;-73
2022/11/09 08:50:57;;;;;;;12.02;3.28;;;12.10;99.90;;;;;;4968157;28;20121;-74
2022/11/09 08:53:25;;;;;;;12.38;2.97;;;12.10;99.90;;;;;;4968429;28;20100;-73
2022/11/09 08:55:50;;;;;;;16.85;2.92;;;12.20;99.90;;;;;;4985564;28;20504;-73
2022/11/09 08:58:17;;;;;;;10.70;2.53;;;12.20;99.90;;;;;;4987258;28;20177;-75
2022/11/09 09:00:43;;;;;;;11.20;2.45;;;12.20;99.90;;;;;;4989548;28;20046;-73
2022/11/09 09:03:09;;;;;;;12.38;2.97;;;12.30;99.90;;;;;;4988102;28;20489;-73
2022/11/09 09:05:35;;;;;;;9.68;2.97;;;12.30;99.90;;;;;;4990211;28;20050;-73
2022/11/09 09:08:03;;;;;;;7.97;2.80;;;12.30;99.90;;;;;;4985733;28;20113;-73
2022/11/09 09:10:29;;;;;;;13.18;3.75;;;12.40;99.90;;;;;;4986765;28;20057;-74
2022/11/09 09:13:03;;;;;;;13.25;3.20;;;12.40;99.90;;;;;;5079818;27;20468;-73
2022/11/09 09:15:29;;;;;;;11.75;2.25;;;12.50;99.90;;;;;;5057974;28;20094;-73
2022/11/09 09:17:55;;;;;;;14.93;4.53;;;12.50;99.90;;;;;;5063957;28;20100;-73
2022/11/09 09:20:20;;;;;;;13.43;3.85;;;12.50;99.90;;;;;;5064168;28;20180;-74
2022/11/09 09:22:46;;;;;;;12.60;2.97;;;12.50;99.90;;;;;;5063642;28;20663;-74
2022/11/09 09:25:12;;;;;;;6.60;2.20;;;12.60;99.90;;;;;;5065395;28;20577;-75
2022/11/09 09:27:37;;;;;;;14.07;2.88;;;12.60;99.90;;;;;;5066428;28;20102;-74
2022/11/09 09:30:04;;;;;;;9.15;2.20;;;12.60;99.90;;;;;;5047268;28;20274;-74
2022/11/09 09:32:29;;;;;;;8.63;1.90;;;12.70;99.90;;;;;;5060973;28;20060;-74
2022/11/09 09:34:55;;;;;;;9.18;2.50;;;12.60;99.90;;;;;;5065095;28;20041;-75
2022/11/09 09:37:21;;;;;;;14.27;3.13;;;12.70;99.90;;;;;;5064237;28;20049;-75
2022/11/09 09:39:47;;;;;;;11.88;2.67;;;12.70;99.90;;;;;;5064241;28;20037;-74
2022/11/09 09:42:23;;;;;;;13.45;3.63;;;12.80;99.90;;;;;;5065200;28;20056;-74
2022/11/09 09:44:51;;;;;;;10.68;1.63;;;12.90;99.90;;;;;;5063209;28;20083;-72
2022/11/09 09:47:44;;;;;;;16.75;2.70;;;12.80;99.90;;;;;;5062494;28;20441;-73
2022/11/09 09:50:27;;;;;;;14.70;2.88;;;12.90;99.90;;;;;;5062587;28;20098;-73
2022/11/09 09:53:16;;;;;;;11.07;3.60;;;13.00;99.90;;;;;;5060152;28;20445;-74
2022/11/09 09:55:46;;;;;;;8.75;2.55;;;13.00;99.90;;;;;;5049773;28;20063;-74
2022/11/09 09:58:24;;;;;;;11.23;2.65;;;13.00;99.90;;;;;;5061673;28;20044;-74
2022/11/09 10:01:14;;;;;;;11.55;1.90;;;13.00;99.90;;;;;;5060373;28;20044;-73
2022/11/09 10:03:40;;;;;;;10.77;2.95;;;13.00;99.90;;;;;;5044369;28;20049;-74
2022/11/09 10:06:06;;;;;;;18.17;4.57;;;13.10;99.90;;;;;;5061911;28;20056;-74
2022/11/09 10:08:50;;;;;;;10.70;3.67;;;13.20;99.90;;;;;;5065028;28;20143;-75
2022/11/09 10:11:45;;;;;;;11.77;2.90;;;13.20;99.90;;;;;;5061281;28;20049;-75
2022/11/09 10:14:32;;;;;;;14.60;2.80;;;13.20;99.90;;;;;;5062173;28;20403;-74
2022/11/09 10:17:30;;;;;;;20.38;4.20;;;13.10;99.90;;;;;;5060083;28;20052;-75
2022/11/09 10:20:26;;;;;;;20.02;5.38;;;13.10;99.90;;;;;;5061995;28;20130;-76
2022/11/09 10:23:18;;;;;;;7.38;2.40;;;13.00;99.90;;;;;;5054939;28;20124;-75
2022/11/09 10:25:46;;;;;;;17.80;5.00;;;13.00;99.90;;;;;;5046883;28;20446;-75
2022/11/09 10:28:15;;;;;;;10.73;3.88;;;13.10;99.90;;;;;;5050297;28;20029;-73
2022/11/09 10:30:41;;;;;;;8.68;2.80;;;13.20;99.90;;;;;;5049026;28;20037;-75
2022/11/09 10:33:10;;;;;;;9.77;3.22;;;13.20;99.90;;;;;;5047789;28;20132;-74
2022/11/09 10:35:45;;;;;;;15.77;4.47;;;13.20;99.90;;;;;;5047653;28;20114;-75
2022/11/09 10:38:24;;;;;;;12.00;3.47;;;13.10;99.90;;;;;;5029222;28;20136;-75
2022/11/09 10:40:52;;;;;;;20.98;5.57;;;13.10;99.90;;;;;;5048612;28;20084;-73
2022/11/09 10:43:18;;;;;;;13.02;3.65;;;13.20;99.90;;;;;;5048933;28;20041;-74
2022/11/09 10:45:44;;;;;;;11.48;3.58;;;13.10;99.90;;;;;;5030487;28;20102;-73
2022/11/09 10:48:12;;;;;;;12.93;2.83;;;13.10;99.90;;;;;;5047338;28;20037;-75
2022/11/09 10:50:38;;;;;;;11.75;2.95;;;13.00;99.90;;;;;;5037334;28;20483;-74
2022/11/09 10:53:21;;;;;;;9.93;3.92;;;13.00;99.90;;;;;;5066493;28;20052;-73
2022/11/09 10:55:56;;;;;;;14.13;3.15;;;13.00;99.90;;;;;;5066656;28;20049;-75
2022/11/09 10:58:32;;;;;;;14.32;4.30;;;13.00;99.90;;;;;;5048229;28;20033;-73
2022/11/09 11:01:13;;;;;;;17.13;3.78;;;13.10;99.90;;;;;;5029015;28;20076;-75
2022/11/09 11:03:39;;;;;;;11.40;3.38;;;13.10;99.90;;;;;;5046532;28;20171;-74
2022/11/09 11:06:17;;;;;;;12.43;2.70;;;13.00;99.90;;;;;;5079632;28;20562;-74
2022/11/09 11:08:45;;;;;;;12.00;3.72;;;13.10;99.90;;;;;;5048628;28;20502;-73
2022/11/09 11:11:20;;;;;;;10.13;3.05;;;13.00;99.90;;;;;;5042780;28;21069;-74
2022/11/09 11:13:48;;;;;;;13.10;3.08;;;13.00;99.90;;;;;;5047384;28;20434;-74
2022/11/09 11:16:34;;;;;;;12.32;2.67;;;13.10;99.90;;;;;;5047071;28;20196;-75
2022/11/09 11:19:01;;;;;;;14.25;3.30;;;13.00;99.90;;;;;;5047696;28;20044;-76
2022/11/09 11:21:28;;;;;;;10.35;4.20;;;13.00;99.90;;;;;;5045629;28;20044;-76
2022/11/09 11:24:19;;;;;;;10.85;2.42;;;12.90;99.90;;;;;;5043577;28;20488;-74
2022/11/09 11:27:33;;;;;;;15.80;5.15;;;12.80;99.90;;;;;;5059216;28;20136;-74
2022/11/09 11:30:13;;;;;;;9.55;2.78;;;12.90;99.90;;;;;;5005349;28;20049;-76
2022/11/09 11:32:39;;;;;;;8.38;2.40;;;13.00;99.90;;;;;;5058578;28;20419;-75
2022/11/09 11:35:13;;;;;;;10.77;2.95;;;13.00;99.90;;;;;;5026904;28;20041;-75
2022/11/09 11:38:06;;;;;;;17.25;4.28;;;13.00;99.90;;;;;;5036284;28;20080;-74
2022/11/09 11:40:40;;;;;;;14.35;4.30;;;13.10;99.90;;;;;;5046907;28;20606;-77
2022/11/09 11:43:27;;;;;;;10.85;3.92;;;13.10;99.90;;;;;;5047609;28;20037;-76
2022/11/09 11:46:12;;;;;;;12.05;3.50;;;13.20;99.90;;;;;;5047350;28;20460;-75
2022/11/09 11:48:59;;;;;;;11.05;2.83;;;13.20;99.90;;;;;;5045322;28;20045;-75
2022/11/09 11:51:51;;;;;;;13.05;2.72;;;13.10;99.90;;;;;;5045203;28;20049;-76
2022/11/09 11:54:40;;;;;;;8.60;2.30;;;13.20;99.90;;;;;;5029135;28;20049;-76
2022/11/09 11:57:25;;;;;;;15.73;2.83;;;13.20;99.90;;;;;;5029194;28;20557;-76
2022/11/09 12:00:10;;;;;;;8.13;3.55;;;13.10;99.90;;;;;;5044594;28;20037;-75
2022/11/09 12:03:13;;;;;;;24.48;4.88;;;13.10;99.90;;;;;;5078578;28;20045;-75
2022/11/09 12:06:06;;;;;;;13.75;3.28;;;13.10;99.90;;;;;;5047007;28;20051;-76
2022/11/09 12:09:13;;;;;;;9.90;2.90;;;13.10;99.90;;;;;;5047079;28;20491;-78
2022/11/09 12:12:05;;;;;;;13.70;4.35;;;13.00;99.90;;;;;;5046245;28;20443;-77
2022/11/09 12:14:55;;;;;;;12.57;2.92;;;13.10;99.90;;;;;;5077475;28;20492;-76
2022/11/09 12:17:45;;;;;;;18.70;5.20;;;13.10;99.90;;;;;;5046818;28;20056;-77
2022/11/09 12:20:26;;;;;;;10.50;2.47;;;13.10;99.90;;;;;;5061695;28;20071;-75
2022/11/09 12:23:08;;;;;;;15.18;3.67;;;13.20;99.90;;;;;;5045345;28;20462;-76
2022/11/09 12:26:00;;;;;;;11.38;2.90;;;13.40;99.90;;;;;;5046655;28;20514;-76
2022/11/09 12:28:56;;;;;;;6.05;1.67;;;13.50;99.90;;;;;;5077781;28;20059;-75
2022/11/09 12:31:47;;;;;;;14.68;4.20;;;13.60;99.90;;;;;;5043797;28;20585;-76
2022/11/09 12:34:13;;;;;;;8.30;3.00;;;13.60;99.90;;;;;;5046698;28;20063;-76
2022/11/09 12:37:06;;;;;;;10.65;2.35;;;13.50;99.90;;;;;;5043524;28;20226;-76
2022/11/09 12:39:53;;;;;;;8.32;1.85;;;13.50;99.90;;;;;;5070867;28;20876;-77
2022/11/09 12:42:42;;;;;;;9.00;1.85;;;13.40;99.90;;;;;;5045010;28;20194;-75
2022/11/09 12:45:31;;;;;;;8.48;2.85;;;13.30;99.90;;;;;;5043606;28;20339;-74
2022/11/09 12:48:14;;;;;;;7.10;1.80;;;13.10;99.90;;;;;;5045182;28;20044;-76
2022/11/09 12:50:40;;;;;;;6.75;1.65;;;13.00;99.90;;;;;;5044603;28;20041;-77
2022/11/09 12:53:07;;;;;;;9.02;2.55;;;12.90;99.90;;;;;;5045469;28;20045;-75
2022/11/09 12:55:41;;;;;;;9.57;2.63;;;12.90;99.90;;;;;;5045188;28;20454;-77
2022/11/09 12:58:22;;;;;;;9.85;3.65;;;12.90;99.90;;;;;;5044592;28;20053;-76
2022/11/09 13:00:51;;;;;;;5.40;1.30;;;12.80;99.90;;;;;;5043566;28;20098;-76